Time;durP1;ratioP1;P1;durP2;ratioP2;P2;SDS_P1;SDS_P2;PMS_P1;PMS_P2;Temp;Humidity;BMP_temperature;BMP_pressure;BME280_temperature;BME280_humidity;BME280_pressure;Samples;Min_cycle;Max_cycle;Signal;HPM_P1;HPM_P2
2023/06/15 00:01:11;;;;;;;26.87;13.90;;;;;;;18.77;74.55;99685.99;1771252;81;21857;-83
2023/06/15 00:04:17;;;;;;;26.17;12.75;;;;;;;18.67;74.86;99684.88;1771845;81;21351;-82
2023/06/15 00:07:22;;;;;;;19.48;12.55;;;;;;;18.54;75.82;99686.02;1770448;81;21273;-84
2023/06/15 00:10:28;;;;;;;23.83;13.22;;;;;;;18.36;76.68;99680.08;1770375;81;21327;-80
2023/06/15 00:13:35;;;;;;;22.42;13.20;;;;;;;18.39;76.63;99672.64;1771922;81;21263;-81
2023/06/15 00:16:41;;;;;;;22.65;12.10;;;;;;;18.50;76.08;99673.19;1770636;81;21315;-80
2023/06/15 00:19:48;;;;;;;24.98;13.32;;;;;;;18.52;76.20;99673.77;1770787;81;21320;-84
2023/06/15 00:22:52;;;;;;;22.82;14.25;;;;;;;18.54;76.35;99678.55;1770305;81;21837;-81
2023/06/15 00:25:58;;;;;;;26.60;14.07;;;;;;;18.45;76.80;99679.16;1740545;82;21325;-80
2023/06/15 00:29:06;;;;;;;18.57;11.80;;;;;;;18.30;77.58;99680.51;1740705;82;21969;-84
2023/06/15 00:32:15;;;;;;;22.95;12.35;;;;;;;18.48;77.33;99675.34;1739981;82;21316;-83
2023/06/15 00:35:20;;;;;;;19.00;11.55;;;;;;;18.27;78.16;99673.22;1740856;82;21269;-82
2023/06/15 00:38:26;;;;;;;21.05;11.30;;;;;;;18.32;78.13;99669.18;1738405;81;21272;-80
2023/06/15 00:41:32;;;;;;;18.02;10.53;;;;;;;18.30;78.20;99669.44;1729436;83;21314;-83
2023/06/15 00:44:39;;;;;;;24.23;11.18;;;;;;;18.64;76.91;99662.14;1730378;83;21840;-83
2023/06/15 00:47:46;;;;;;;18.80;9.50;;;;;;;18.59;76.80;99664.80;1730508;83;21335;-83
2023/06/15 00:50:51;;;;;;;15.38;9.33;;;;;;;18.36;77.39;99657.92;1684889;85;21314;-83
2023/06/15 00:53:57;;;;;;;13.98;8.70;;;;;;;18.48;77.26;99651.80;1685270;83;21330;-83
2023/06/15 00:57:04;;;;;;;12.15;8.38;;;;;;;18.23;78.10;99654.02;1692255;83;21306;-80
2023/06/15 01:00:10;;;;;;;13.85;8.25;;;;;;;18.13;78.64;99656.86;1692531;85;21321;-83
2023/06/15 01:03:20;;;;;;;13.43;8.78;;;;;;;18.13;78.64;99662.39;1692121;83;21854;-81
2023/06/15 01:06:24;;;;;;;15.08;7.97;;;;;;;18.25;78.31;99653.23;1692606;85;21314;-83
2023/06/15 01:09:30;;;;;;;11.48;7.95;;;;;;;18.33;78.21;99657.02;1691874;85;21887;-81
2023/06/15 01:12:40;;;;;;;13.88;7.50;;;;;;;18.39;78.18;99650.50;1675925;85;21323;-82
2023/06/15 01:15:43;;;;;;;14.87;8.20;;;;;;;18.67;77.03;99655.25;1675650;85;21367;-83
2023/06/15 01:18:56;;;;;;;14.90;7.97;;;;;;;18.16;78.87;99656.93;1693288;85;21302;-83
2023/06/15 01:22:00;;;;;;;17.70;8.05;;;;;;;18.30;79.39;99658.87;1693248;85;21337;-82
2023/06/15 01:25:10;;;;;;;12.73;7.22;;;;;;;18.17;80.19;99664.69;1693441;85;21327;-80
2023/06/15 01:28:17;;;;;;;20.37;8.40;;;;;;;18.51;79.21;99662.95;1693419;85;21341;-82
2023/06/15 01:31:25;;;;;;;13.18;7.70;;;;;;;18.79;78.55;99656.65;1692245;85;21306;-82
2023/06/15 01:34:36;;;;;;;18.15;7.42;;;;;;;18.79;78.57;99654.72;1693347;85;21302;-81
2023/06/15 01:37:39;;;;;;;14.20;7.78;;;;;;;18.84;78.79;99654.81;1692412;85;21306;-83
2023/06/15 01:40:51;;;;;;;12.75;7.08;;;;;;;19.32;77.50;99653.52;1692601;85;21349;-83
2023/06/15 01:43:58;;;;;;;16.57;7.75;;;;;;;19.47;77.03;99659.88;1693558;85;21962;-83
2023/06/15 01:47:03;;;;;;;13.13;7.70;;;;;;;19.23;78.04;99652.78;1692046;85;21325;-80
2023/06/15 01:50:12;;;;;;;14.65;8.45;;;;;;;19.43;77.51;99651.75;1692921;85;21305;-83
2023/06/15 01:53:18;;;;;;;15.80;7.35;;;;;;;19.49;77.32;99649.39;1693581;85;21832;-83
2023/06/15 01:56:25;;;;;;;20.00;7.47;;;;;;;19.27;78.32;99656.74;1702066;81;21324;-83
2023/06/15 01:59:32;;;;;;;15.95;7.97;;;;;;;19.49;78.17;99659.09;1771628;81;21304;-81
2023/06/15 02:02:38;;;;;;;15.43;7.78;;;;;;;19.50;78.18;99656.61;1772160;81;21850;-81
2023/06/15 02:05:47;;;;;;;17.57;7.70;;;;;;;19.30;77.88;99649.33;1771927;81;21296;-83
2023/06/15 02:08:54;;;;;;;15.28;7.22;;;;;;;19.15;79.39;99648.50;1771734;81;21253;-83
2023/06/15 02:11:58;;;;;;;23.32;7.60;;;;;;;19.50;78.48;99647.45;1771815;81;21303;-80
2023/06/15 02:15:03;;;;;;;13.32;6.70;;;;;;;19.57;78.42;99645.34;1773935;81;21834;-80
2023/06/15 02:18:15;;;;;;;19.77;6.75;;;;;;;19.68;78.13;99649.18;1774528;81;21304;-79
2023/06/15 02:21:21;;;;;;;11.18;6.67;;;;;;;20.02;77.33;99653.61;1770176;81;21300;-83
2023/06/15 02:24:26;;;;;;;14.10;6.50;;;;;;;20.11;76.96;99655.41;1771859;81;21256;-81
2023/06/15 02:27:33;;;;;;;11.78;5.95;;;;;;;20.63;74.78;99657.28;1771836;81;21807;-83
2023/06/15 02:30:38;;;;;;;8.73;5.85;;;;;;;20.89;73.89;99656.23;1771298;81;21347;-83
2023/06/15 02:33:44;;;;;;;12.95;6.05;;;;;;;20.99;73.77;99663.30;1771755;81;21813;-82
2023/06/15 02:36:53;;;;;;;14.75;5.75;;;;;;;21.66;71.31;99657.32;1770501;81;21299;-83
2023/06/15 02:40:00;;;;;;;15.65;5.90;;;;;;;21.80;69.92;99654.09;1771787;81;21317;-81
2023/06/15 02:43:05;;;;;;;14.05;5.53;;;;;;;22.29;67.56;99655.30;1771757;81;21749;-82
2023/06/15 02:46:11;;;;;;;13.70;6.47;;;;;;;22.15;67.27;99658.55;1771024;81;21883;-81
2023/06/15 02:49:18;;;;;;;10.05;5.95;;;;;;;22.03;66.84;99652.33;1771932;81;21304;-82
2023/06/15 02:52:24;;;;;;;20.45;8.25;;;;;;;22.50;65.37;99656.28;1770717;81;21908;-81
2023/06/15 02:55:33;;;;;;;25.80;9.63;;;;;;;22.84;63.97;99664.51;1771614;81;21285;-81
2023/06/15 02:58:42;;;;;;;24.47;11.30;;;;;;;22.93;63.16;99656.50;1777093;80;21833;-84
2023/06/15 03:02:02;;;;;;;23.62;13.03;;;;;;;22.74;63.68;99663.64;1780298;80;21291;-84
2023/06/15 03:04:57;;;;;;;29.12;14.40;;;;;;;22.47;64.18;99654.86;1780035;80;21260;-83
2023/06/15 03:08:05;;;;;;;31.73;14.75;;;;;;;22.51;63.87;99659.34;1779305;80;21863;-84
2023/06/15 03:11:13;;;;;;;31.35;15.20;;;;;;;22.39;64.53;99656.75;1779179;80;21330;-81
2023/06/15 03:14:19;;;;;;;33.63;14.98;;;;;;;22.60;64.12;99665.52;1778722;80;21203;-81
2023/06/15 03:17:26;;;;;;;27.00;14.15;;;;;;;22.43;64.65;99664.86;1779919;80;21260;-81
2023/06/15 03:20:34;;;;;;;34.55;15.03;;;;;;;21.82;67.07;99663.01;1779852;80;21343;-81
2023/06/15 03:23:42;;;;;;;26.90;14.47;;;;;;;21.62;68.62;99661.73;1779199;80;21331;-85
2023/06/15 03:26:43;;;;;;;28.70;14.65;;;;;;;21.48;69.37;99663.27;1778829;80;21312;-79
2023/06/15 03:29:37;;;;;;;29.20;14.58;;;;;;;21.51;70.42;99657.75;1780076;80;21256;-79
2023/06/15 03:32:27;;;;;;;27.05;12.68;;;;;;;21.64;69.89;99658.16;1780265;80;21300;-80
2023/06/15 03:35:17;;;;;;;22.10;13.22;;;;;;;21.11;71.54;99662.58;1780253;80;21340;-81
2023/06/15 03:38:03;;;;;;;23.00;12.63;;;;;;;21.04;72.66;99667.52;1780015;80;21295;-81
2023/06/15 03:40:55;;;;;;;21.55;12.95;;;;;;;21.10;72.35;99672.03;1779090;80;21876;-79
2023/06/15 03:43:42;;;;;;;30.97;14.23;;;;;;;21.08;72.73;99671.47;1779950;80;21277;-82
2023/06/15 03:46:36;;;;;;;25.88;13.05;;;;;;;21.03;73.24;99670.53;1779052;80;21312;-83
2023/06/15 03:49:43;;;;;;;24.80;15.68;;;;;;;21.14;72.83;99670.41;1778667;80;21815;-83
2023/06/15 03:52:50;;;;;;;36.05;19.90;;;;;;;21.17;72.59;99671.81;1779931;80;21316;-81
2023/06/15 03:55:56;;;;;;;33.92;22.30;;;;;;;20.70;74.17;99674.30;1779574;80;21311;-83
2023/06/15 03:59:02;;;;;;;38.02;24.40;;;;;;;20.71;74.47;99680.17;1781384;80;21331;-83
2023/06/15 04:02:06;;;;;;;34.70;23.02;;;;;;;20.82;74.18;99676.42;1784044;80;21860;-81
2023/06/15 04:05:13;;;;;;;42.35;25.02;;;;;;;20.92;74.12;99678.77;1785533;80;21299;-83
2023/06/15 04:08:19;;;;;;;39.42;23.32;;;;;;;20.97;73.99;99675.20;1785318;80;21279;-81
2023/06/15 04:11:24;;;;;;;42.67;23.00;;;;;;;20.80;74.83;99673.07;1784510;80;21857;-83
2023/06/15 04:14:31;;;;;;;34.48;20.68;;;;;;;20.86;74.84;99674.80;1784187;80;21275;-83
2023/06/15 04:17:37;;;;;;;30.45;20.55;;;;;;;21.01;74.60;99679.70;1784005;80;21255;-81
2023/06/15 04:20:44;;;;;;;25.48;17.05;;;;;;;21.04;74.53;99677.80;1784980;80;21275;-81
2023/06/15 04:23:50;;;;;;;41.20;21.45;;;;;;;21.24;73.87;99680.80;1770611;80;21300;-80
2023/06/15 04:27:00;;;;;;;33.73;20.02;;;;;;;21.37;73.30;99683.20;1753496;82;21814;-83
2023/06/15 04:30:05;;;;;;;34.27;19.75;;;;;;;21.40;73.04;99687.39;1754656;82;21302;-83
2023/06/15 04:33:16;;;;;;;34.45;20.75;;;;;;;21.37;72.91;99687.38;1753944;82;21877;-83
2023/06/15 04:36:21;;;;;;;;;;;;;;;21.57;72.37;99679.78;1756526;82;21367;-83
2023/06/15 04:39:32;;;;;;;31.05;19.73;;;;;;;21.49;72.70;99691.38;1754240;80;20252;-82
2023/06/15 04:42:37;;;;;;;;;;;;;;;21.74;72.02;99692.19;1756950;82;21274;-82
2023/06/15 04:45:43;;;;;;;30.72;18.15;;;;;;;21.66;71.85;99695.45;1754284;82;20708;-81
2023/06/15 04:48:49;;;;;;;23.27;17.40;;;;;;;21.95;71.00;99686.23;1754809;82;21946;-81
2023/06/15 04:51:55;;;;;;;32.17;18.02;;;;;;;21.77;71.89;99689.41;1753279;82;21871;-80
2023/06/15 04:55:05;;;;;;;37.08;17.50;;;;;;;21.77;72.54;99690.25;1783473;80;21335;-83
2023/06/15 04:58:11;;;;;;;29.82;16.50;;;;;;;22.16;71.99;99695.07;1785717;80;21291;-83
2023/06/15 05:01:17;;;;;;;31.95;16.48;;;;;;;22.69;70.08;99690.38;1783639;80;21280;-84
2023/06/15 05:04:22;;;;;;;34.88;15.40;;;;;;;23.14;68.74;99690.30;1784516;80;21328;-82
2023/06/15 05:07:28;;;;;;;23.98;15.70;;;;;;;23.24;67.91;99684.47;1785681;80;21610;-84
2023/06/15 05:10:36;;;;;;;28.73;15.10;;;;;;;23.30;66.91;99688.41;1784904;80;21280;-82
2023/06/15 05:13:46;;;;;;;19.73;12.85;;;;;;;23.62;66.38;99690.12;1785659;80;21296;-82
2023/06/15 05:16:51;;;;;;;19.90;12.40;;;;;;;23.60;65.35;99687.61;1785627;80;21292;-81
2023/06/15 05:19:57;;;;;;;20.43;11.90;;;;;;;23.89;64.60;99685.70;1785746;80;21158;-82
2023/06/15 05:23:03;;;;;;;23.80;12.65;;;;;;;24.04;63.70;99687.09;1780449;80;21292;-81
2023/06/15 05:26:04;;;;;;;25.70;12.47;;;;;;;24.33;63.29;99683.73;1753525;82;21312;-81
2023/06/15 05:29:12;;;;;;;33.15;12.90;;;;;;;24.26;63.30;99673.39;1754385;82;21296;-81
2023/06/15 05:32:19;;;;;;;22.27;12.40;;;;;;;24.55;61.42;99673.07;1754568;82;21785;-80
2023/06/15 05:35:24;;;;;;;35.33;15.35;;;;;;;24.68;61.80;99675.84;1753265;82;21320;-83
2023/06/15 05:38:30;;;;;;;27.80;13.98;;;;;;;25.01;59.57;99674.30;1754429;80;21313;-81
2023/06/15 05:41:37;;;;;;;28.92;14.70;;;;;;;25.25;59.13;99692.67;1753387;81;21333;-81
2023/06/15 05:44:43;;;;;;;30.25;14.18;;;;;;;25.14;59.07;99688.27;1753201;82;21285;-81
2023/06/15 05:47:49;;;;;;;30.25;14.83;;;;;;;25.31;58.79;99685.08;1754740;82;21270;-82
2023/06/15 05:50:55;;;;;;;33.73;15.13;;;;;;;25.35;58.61;99683.38;1754068;82;21890;-81
2023/06/15 05:54:01;;;;;;;39.27;15.55;;;;;;;25.06;59.23;99679.88;1769872;80;21876;-83
2023/06/15 05:57:10;;;;;;;36.10;16.60;;;;;;;25.11;59.02;99680.44;1784063;80;21307;-84
2023/06/15 06:00:17;;;;;;;27.32;15.75;;;;;;;25.25;59.02;99681.48;1785667;80;21307;-83
2023/06/15 06:03:23;;;;;;;28.25;16.07;;;;;;;25.07;59.56;99675.98;1782145;80;21297;-81
2023/06/15 06:06:24;;;;;;;33.33;15.05;;;;;;;25.41;58.91;99680.84;1780812;80;21864;-84
2023/06/15 06:09:18;;;;;;;35.95;17.00;;;;;;;25.26;59.45;99675.32;1782148;80;21291;-80
2023/06/15 06:12:05;;;;;;;30.60;16.65;;;;;;;25.09;59.16;99675.70;1781897;80;21825;-81
2023/06/15 06:15:00;;;;;;;34.63;18.35;;;;;;;25.08;58.93;99673.48;1781083;80;21856;-81
2023/06/15 06:17:47;;;;;;;32.67;16.82;;;;;;;24.99;59.43;99676.56;1782310;80;21280;-81
2023/06/15 06:20:40;;;;;;;32.42;18.98;;;;;;;24.96;59.10;99675.73;1780715;80;21347;-83
2023/06/15 06:23:46;;;;;;;31.83;19.00;;;;;;;25.26;58.71;99679.52;1765339;80;21310;-81
2023/06/15 06:26:51;;;;;;;38.55;20.00;;;;;;;25.30;58.79;99670.25;1740159;82;21271;-82
2023/06/15 06:29:59;;;;;;;42.95;20.55;;;;;;;25.22;57.72;99676.48;1740183;82;21906;-82
2023/06/15 06:33:04;;;;;;;38.63;20.15;;;;;;;25.12;58.98;99672.31;1740521;82;21649;-82
2023/06/15 06:36:12;;;;;;;42.70;21.68;;;;;;;25.23;58.26;99680.38;1739652;82;21349;-83
2023/06/15 06:39:17;;;;;;;53.05;25.37;;;;;;;25.41;57.27;99688.69;1740224;80;21965;-84
2023/06/15 06:42:24;;;;;;;40.95;24.00;;;;;;;24.21;61.62;99682.06;1739529;82;21330;-82
2023/06/15 06:45:29;;;;;;;53.55;26.42;;;;;;;24.32;62.11;99684.27;1739786;82;21874;-82
2023/06/15 06:48:34;;;;;;;57.70;27.55;;;;;;;24.51;61.25;99683.14;1742874;80;21350;-83
2023/06/15 06:51:41;;;;;;;65.60;29.70;;;;;;;24.54;60.81;99683.98;1775898;80;21886;-82
2023/06/15 06:54:46;;;;;;;56.45;28.95;;;;;;;24.56;61.26;99686.48;1769979;79;21950;-82
2023/06/15 06:57:53;;;;;;;55.92;25.20;;;;;;;24.62;60.61;99690.40;1767160;80;21322;-84
2023/06/15 07:00:59;;;;;;;57.03;25.17;;;;;;;24.68;60.58;99688.42;1744379;82;21867;-84
2023/06/15 07:04:05;;;;;;;46.15;20.20;;;;;;;24.90;59.05;99694.50;1772784;80;22240;-85
2023/06/15 07:07:12;;;;;;;38.17;19.48;;;;;;;24.96;58.86;99688.31;1741278;82;21303;-82
2023/06/15 07:10:31;;;;;;;37.63;21.68;;;;;;;24.97;57.97;99690.81;1692726;83;21315;-82
2023/06/15 07:13:38;;;;;;;50.28;24.95;;;;;;;24.51;60.37;99687.90;1706504;83;21278;-82
2023/06/15 07:16:44;;;;;;;45.00;22.65;;;;;;;24.79;59.76;99690.61;1710062;84;21365;-83
2023/06/15 07:19:50;;;;;;;42.78;23.67;;;;;;;24.90;59.63;99690.87;1703009;83;21287;-81
2023/06/15 07:22:57;;;;;;;46.13;23.85;;;;;;;25.53;57.28;99681.87;1695124;83;21330;-84
2023/06/15 07:26:03;;;;;;;34.78;20.48;;;;;;;25.48;57.34;99689.18;1710431;83;21909;-82
2023/06/15 07:29:09;;;;;;;25.95;15.58;;;;;;;25.58;56.09;99691.08;1725081;83;21374;-82
2023/06/15 07:32:15;;;;;;;31.65;17.82;;;;;;;25.37;56.45;99688.15;1724087;83;21275;-82
2023/06/15 07:35:21;;;;;;;32.35;16.75;;;;;;;25.62;55.99;99690.77;1728887;83;21705;-81
2023/06/15 07:38:26;;;;;;;29.82;17.90;;;;;;;25.65;55.47;99695.80;1718286;83;21330;-81
2023/06/15 07:41:31;;;;;;;44.00;20.92;;;;;;;25.61;55.39;99693.30;1732946;83;21339;-82
2023/06/15 07:44:37;;;;;;;44.70;20.95;;;;;;;25.50;55.33;99697.28;1709764;83;21345;-81
2023/06/15 07:47:42;;;;;;;40.83;21.30;;;;;;;25.31;56.29;99700.48;1725017;83;21287;-82
2023/06/15 07:50:48;;;;;;;33.35;19.92;;;;;;;25.36;56.58;99699.05;1714575;81;21936;-81
2023/06/15 07:53:53;;;;;;;37.15;18.60;;;;;;;25.19;57.15;99704.47;1714530;83;21315;-83
2023/06/15 07:57:00;;;;;;;30.00;15.83;;;;;;;25.33;57.58;99703.84;1699303;83;21326;-81
2023/06/15 08:00:08;;;;;;;37.23;17.62;;;;;;;25.42;56.62;99697.91;1717071;83;21362;-81
2023/06/15 08:03:15;;;;;;;33.98;15.90;;;;;;;25.57;56.05;99692.20;1721473;81;21360;-81
2023/06/15 08:06:22;;;;;;;45.28;15.43;;;;;;;25.77;55.56;99694.62;1715680;83;21913;-81
2023/06/15 08:09:28;;;;;;;33.85;19.98;;;;;;;25.91;55.32;99683.02;1729990;82;21828;-84
2023/06/15 08:12:27;;;;;;;41.35;20.02;;;;;;;26.19;54.88;99686.41;1782095;80;21303;-82
2023/06/15 08:15:34;;;;;;;34.78;19.35;;;;;;;26.32;54.03;99686.86;1751594;82;21920;-82
2023/06/15 08:18:38;;;;;;;26.48;17.20;;;;;;;26.46;53.54;99680.86;1714883;83;21856;-82
2023/06/15 08:21:45;;;;;;;32.35;14.50;;;;;;;26.97;52.34;99689.52;1749788;82;21884;-84
2023/06/15 08:24:50;;;;;;;28.75;14.38;;;;;;;27.05;52.04;99680.15;1697251;82;21290;-82
2023/06/15 08:27:55;;;;;;;24.87;13.50;;;;;;;27.13;51.39;99677.55;1694149;84;21361;-82
2023/06/15 08:31:03;;;;;;;25.57;13.28;;;;;;;27.33;51.08;99676.42;1750951;82;21311;-82
2023/06/15 08:34:08;;;;;;;25.97;12.95;;;;;;;27.63;49.74;99675.14;1715452;83;21275;-82
2023/06/15 08:37:14;;;;;;;24.75;14.43;;;;;;;27.78;49.77;99671.86;1751469;82;21295;-84
2023/06/15 08:40:20;;;;;;;22.30;13.32;;;;;;;27.70;48.47;99682.60;1715429;83;21302;-83
2023/06/15 08:43:26;;;;;;;28.65;13.40;;;;;;;27.11;50.05;99674.22;1747280;80;21965;-84
2023/06/15 08:46:33;;;;;;;29.63;12.35;;;;;;;27.09;50.77;99683.48;1739522;82;21310;-84
2023/06/15 08:49:39;;;;;;;27.85;12.45;;;;;;;27.07;50.58;99673.69;1740917;82;21306;-82
2023/06/15 08:52:45;;;;;;;24.72;11.78;;;;;;;26.79;51.03;99667.86;1740965;82;21307;-82
2023/06/15 08:55:50;;;;;;;19.52;9.83;;;;;;;26.83;51.38;99661.92;1740497;82;21291;-84
2023/06/15 08:58:57;;;;;;;27.02;11.70;;;;;;;27.14;50.73;99666.58;1695590;82;21342;-84
2023/06/15 09:01:55;;;;;;;26.90;10.65;;;;;;;27.06;51.24;99667.23;1694348;84;21318;-84
2023/06/15 09:04:49;;;;;;;19.30;9.15;;;;;;;27.19;50.75;99658.66;1661850;85;21367;-84
2023/06/15 09:07:58;;;;;;;22.40;10.75;;;;;;;27.30;49.60;99658.80;1680594;83;21288;-82
2023/06/15 09:11:16;;;;;;;23.57;10.13;;;;;;;27.60;49.05;99654.67;1730506;82;21298;-84
2023/06/15 09:14:22;;;;;;;19.30;7.78;;;;;;;27.68;49.10;99649.78;1761767;81;21307;-84
2023/06/15 09:17:27;;;;;;;14.90;7.22;;;;;;;28.09;47.41;99649.13;1771123;81;21332;-84
2023/06/15 09:20:39;;;;;;;14.47;7.28;;;;;;;28.04;47.95;99649.19;1763367;81;21311;-85
2023/06/15 09:23:49;;;;;;;13.28;6.42;;;;;;;28.22;47.31;99651.11;1759779;81;21313;-84
2023/06/15 09:26:56;;;;;;;11.48;5.80;;;;;;;28.37;46.95;99644.42;1740357;82;21854;-83
2023/06/15 09:30:14;;;;;;;24.12;5.67;;;;;;;28.22;47.09;99649.70;1732108;83;21308;-83
2023/06/15 09:33:26;;;;;;;17.07;7.67;;;;;;;28.43;47.31;99659.22;1733015;83;21279;-81
2023/06/15 09:36:33;;;;;;;15.60;6.62;;;;;;;28.75;46.33;99654.91;1732185;83;21327;-83
2023/06/15 09:39:37;;;;;;;10.68;5.87;;;;;;;28.81;45.59;99651.99;1762250;81;21266;-83
2023/06/15 09:42:43;;;;;;;14.98;5.40;;;;;;;28.94;45.48;99656.20;1769451;81;21276;-83
2023/06/15 09:46:03;;;;;;;20.57;5.85;;;;;;;28.98;44.75;99647.42;1741451;82;21847;-81
2023/06/15 09:49:09;;;;;;;14.93;5.60;;;;;;;29.08;45.24;99647.78;1741448;82;21281;-80
2023/06/15 09:52:15;;;;;;;22.52;6.47;;;;;;;29.03;44.63;99640.86;1741469;82;21278;-83
2023/06/15 09:55:20;;;;;;;16.97;5.53;;;;;;;29.18;44.89;99645.31;1733108;82;21301;-81
2023/06/15 09:58:26;;;;;;;17.80;4.85;;;;;;;29.01;45.46;99640.32;1736486;81;21306;-82
2023/06/15 10:01:33;;;;;;;13.88;4.65;;;;;;;29.06;45.15;99645.84;1685174;85;21334;-81
2023/06/15 10:04:41;;;;;;;14.07;4.97;;;;;;;29.19;45.20;99641.34;1686068;85;21937;-82
2023/06/15 10:07:51;;;;;;;13.43;5.05;;;;;;;29.24;45.07;99635.59;1683061;85;21289;-82
2023/06/15 10:10:58;;;;;;;13.95;4.22;;;;;;;29.46;45.00;99635.63;1670660;85;21890;-81
2023/06/15 10:14:10;;;;;;;13.15;4.58;;;;;;;29.49;45.66;99636.38;1692025;85;21304;-82
2023/06/15 10:17:16;;;;;;;13.50;4.35;;;;;;;29.49;44.54;99636.38;1691831;85;21726;-82
2023/06/15 10:20:24;;;;;;;10.32;4.90;;;;;;;29.45;44.64;99642.42;1691862;85;21356;-84
2023/06/15 10:23:34;;;;;;;11.60;4.45;;;;;;;29.22;44.47;99629.45;1690884;85;21280;-81
2023/06/15 10:26:40;;;;;;;18.62;4.53;;;;;;;29.15;44.30;99635.50;1690895;85;21323;-84
2023/06/15 10:30:14;;;;;;;11.45;4.22;;;;;;;28.94;45.45;99630.05;1676929;85;21331;-84
2023/06/15 10:33:57;;;;;;;12.10;4.28;;;;;;;28.44;46.90;99627.95;1692015;85;21296;-84
2023/06/15 10:37:15;;;;;;;13.83;5.00;;;;;;;28.42;47.41;99619.55;1680737;85;21314;-83
2023/06/15 10:40:24;;;;;;;12.07;4.15;;;;;;;28.58;47.25;99620.94;1663706;86;21895;-82
2023/06/15 10:43:31;;;;;;;13.62;3.87;;;;;;;28.77;46.35;99616.60;1663955;86;21343;-80
2023/06/15 10:46:41;;;;;;;21.85;4.47;;;;;;;28.88;45.75;99625.65;1662822;86;21860;-81
2023/06/15 10:49:59;;;;;;;15.32;4.35;;;;;;;29.19;44.13;99619.64;1662785;86;21296;-84
2023/06/15 10:53:05;;;;;;;14.87;4.30;;;;;;;29.42;43.99;99623.91;1663938;85;21323;-83
2023/06/15 10:56:12;;;;;;;15.95;4.17;;;;;;;29.43;43.67;99618.53;1664211;86;21387;-83
2023/06/15 10:59:16;;;;;;;11.40;4.53;;;;;;;29.42;44.16;99609.83;1688586;83;21316;-82
2023/06/15 11:02:40;;;;;;;11.12;4.00;;;;;;;29.46;43.79;99617.33;1687461;85;21844;-81
2023/06/15 11:05:50;;;;;;;17.30;4.55;;;;;;;29.65;43.31;99610.70;1675990;85;21336;-81
2023/06/15 11:09:01;;;;;;;13.08;4.05;;;;;;;29.76;43.50;99607.30;1707214;83;21315;-83
2023/06/15 11:12:07;;;;;;;16.32;4.55;;;;;;;30.08;43.13;99613.81;1677454;83;22214;-83
2023/06/15 11:15:21;;;;;;;7.75;4.08;;;;;;;30.12;42.26;99606.38;1720084;82;21331;-82
2023/06/15 11:18:28;;;;;;;10.48;3.90;;;;;;;29.99;42.77;99616.57;1713883;83;21267;-83
2023/06/15 11:21:36;;;;;;;15.10;4.00;;;;;;;30.20;42.48;99610.41;1722867;83;21323;-82
2023/06/15 11:24:51;;;;;;;11.60;3.95;;;;;;;30.10;42.32;99616.30;1708644;83;21955;-84
2023/06/15 11:27:55;;;;;;;13.75;4.25;;;;;;;30.03;41.60;99615.36;1729852;83;21287;-82
2023/06/15 11:31:01;;;;;;;15.23;4.60;;;;;;;29.94;41.78;99618.70;1729587;83;21349;-81
2023/06/15 11:34:07;;;;;;;10.15;4.10;;;;;;;29.69;42.89;99619.61;1730385;83;21323;-83
2023/06/15 11:37:12;;;;;;;12.82;4.22;;;;;;;29.39;43.68;99623.95;1720521;83;21328;-84
2023/06/15 11:40:18;;;;;;;10.08;4.03;;;;;;;29.52;43.63;99625.90;1730149;83;21347;-83
2023/06/15 11:43:24;;;;;;;14.68;4.37;;;;;;;29.45;43.60;99622.70;1720756;83;22146;-84
2023/06/15 11:46:31;;;;;;;15.32;4.67;;;;;;;29.52;43.50;99620.84;1699724;84;21359;-84
2023/06/15 11:49:42;;;;;;;13.05;4.67;;;;;;;29.34;43.01;99621.84;1720475;83;21267;-84
2023/06/15 11:52:53;;;;;;;11.93;5.17;;;;;;;29.37;43.26;99619.23;1730824;83;21291;-82
2023/06/15 11:56:00;;;;;;;10.20;4.20;;;;;;;29.48;44.33;99612.77;1730351;83;21854;-84
2023/06/15 11:59:06;;;;;;;6.47;3.67;;;;;;;29.31;44.41;99615.42;1730553;83;21312;-82
2023/06/15 12:02:12;;;;;;;18.07;4.80;;;;;;;29.41;43.85;99608.17;1729995;83;21216;-84
2023/06/15 12:05:19;;;;;;;9.18;4.40;;;;;;;29.43;44.57;99608.09;1730842;83;21321;-82
2023/06/15 12:08:25;;;;;;;17.40;4.95;;;;;;;29.42;43.39;99609.25;1731228;81;21299;-82
2023/06/15 12:11:32;;;;;;;17.48;4.12;;;;;;;29.39;43.43;99609.05;1709494;84;21371;-84
2023/06/15 12:14:36;;;;;;;12.93;4.87;;;;;;;29.31;44.17;99605.56;1710474;84;21277;-83
2023/06/15 12:17:37;;;;;;;12.78;4.58;;;;;;;29.29;44.67;99609.55;1709209;84;21292;-83
2023/06/15 12:20:35;;;;;;;13.90;4.70;;;;;;;29.35;44.30;99613.64;1709313;84;21848;-82
2023/06/15 12:23:41;;;;;;;14.03;5.37;;;;;;;29.44;43.99;99610.33;1688286;83;21846;-85
2023/06/15 12:26:47;;;;;;;11.68;4.05;;;;;;;29.39;43.58;99607.64;1704436;84;21353;-84
2023/06/15 12:29:52;;;;;;;11.35;4.35;;;;;;;29.63;43.76;99602.55;1705007;84;21298;-82
2023/06/15 12:32:58;;;;;;;18.42;4.80;;;;;;;29.74;43.60;99605.97;1705687;84;21329;-85
2023/06/15 12:36:04;;;;;;;12.88;5.30;;;;;;;29.52;43.53;99605.34;1705697;84;21334;-84
2023/06/15 12:39:18;;;;;;;18.15;4.90;;;;;;;29.42;44.78;99607.02;1718257;83;21856;-82
2023/06/15 12:42:29;;;;;;;14.13;5.50;;;;;;;29.40;44.01;99606.48;1727824;83;21291;-84
2023/06/15 12:45:36;;;;;;;14.98;5.45;;;;;;;29.29;44.70;99611.53;1726602;83;21876;-82
2023/06/15 12:48:42;;;;;;;11.68;4.33;;;;;;;29.56;43.72;99606.99;1726707;83;21943;-84
2023/06/15 12:51:49;;;;;;;11.55;4.78;;;;;;;29.58;43.89;99607.49;1726768;83;21303;-84
2023/06/15 12:54:55;;;;;;;11.22;4.10;;;;;;;29.71;44.14;99604.61;1734034;82;21291;-82
2023/06/15 12:58:02;;;;;;;16.12;5.20;;;;;;;29.81;43.65;99597.05;1733540;83;21336;-84
2023/06/15 13:01:07;;;;;;;18.45;5.55;;;;;;;29.69;43.57;99597.07;1733595;83;21304;-83
2023/06/15 13:04:13;;;;;;;15.72;5.78;;;;;;;29.79;43.21;99595.39;1734981;83;21324;-83
2023/06/15 13:07:19;;;;;;;15.43;5.00;;;;;;;29.12;44.45;99591.07;1734905;82;21277;-82
2023/06/15 13:10:39;;;;;;;10.00;5.03;;;;;;;29.33;43.95;99587.22;1736335;82;21303;-85
2023/06/15 13:13:45;;;;;;;17.90;5.90;;;;;;;29.32;43.68;99594.59;1738343;82;21817;-85
2023/06/15 13:16:51;;;;;;;17.12;4.78;;;;;;;29.21;43.41;99591.98;1737960;82;21320;-82
2023/06/15 13:19:51;;;;;;;12.60;4.90;;;;;;;29.15;43.91;99580.59;1737576;82;21304;-82
2023/06/15 13:22:57;;;;;;;9.53;4.10;;;;;;;29.22;43.99;99582.41;1738106;82;21288;-83
2023/06/15 13:26:03;;;;;;;14.70;4.75;;;;;;;29.17;44.54;99588.71;1738169;82;21331;-82
2023/06/15 13:29:11;;;;;;;17.75;5.15;;;;;;;29.08;43.76;99588.66;1738038;82;21320;-82
2023/06/15 13:32:16;;;;;;;25.27;4.97;;;;;;;28.97;44.39;99583.81;1737053;82;21769;-82
2023/06/15 13:35:16;;;;;;;15.90;4.97;;;;;;;28.84;44.59;99582.39;1737046;82;21873;-85
2023/06/15 13:38:08;;;;;;;18.77;5.12;;;;;;;28.69;44.91;99582.16;1738324;82;21296;-84
2023/06/15 13:41:13;;;;;;;13.83;4.83;;;;;;;28.65;44.57;99581.95;1737645;82;21379;-82
2023/06/15 13:44:18;;;;;;;10.35;4.70;;;;;;;28.71;44.44;99570.86;1738393;82;21288;-84
2023/06/15 13:47:25;;;;;;;14.68;6.00;;;;;;;29.01;44.36;99565.72;1738317;82;21280;-82
2023/06/15 13:50:31;;;;;;;17.57;5.33;;;;;;;28.85;44.05;99571.42;1738004;82;21320;-82
2023/06/15 13:53:38;;;;;;;17.00;4.95;;;;;;;28.91;44.44;99572.39;1738078;82;21285;-82
2023/06/15 13:56:44;;;;;;;15.95;5.50;;;;;;;29.05;43.95;99570.98;1737206;82;21343;-81
2023/06/15 13:59:50;;;;;;;21.93;5.60;;;;;;;29.03;44.04;99571.89;1739930;82;21257;-81
2023/06/15 14:03:04;;;;;;;11.88;5.60;;;;;;;28.96;44.50;99568.08;1740293;82;21273;-84
2023/06/15 14:13:27;;;;;;;9.20;4.50;;;;;;;29.33;44.96;99563.28;1858389;76;22189;-82
2023/06/15 14:16:34;;;;;;;10.45;5.30;;;;;;;29.41;43.76;99562.52;1750580;81;21302;-82
2023/06/15 14:19:39;;;;;;;15.75;4.85;;;;;;;29.45;44.23;99566.37;1737571;82;21840;-81
2023/06/15 14:22:47;;;;;;;12.13;5.08;;;;;;;29.45;44.96;99565.50;1750633;82;21314;-84
2023/06/15 14:25:53;;;;;;;13.75;4.80;;;;;;;29.54;45.70;99559.36;1737029;82;21973;-82
2023/06/15 14:29:00;;;;;;;13.88;5.35;;;;;;;29.61;44.94;99564.59;1751723;82;21271;-84